Terminal Aerodrome Forecast
Issued by NWS

Home | Current Version | Previous Version | Text Only | Print | Product List | Glossary On
Versions: 1 2 3 4 5 6 7 8 9 10 11 12 13 14 15 16 17 18 19 20 21 22 23 24 25 26 27 28 29 30 31 32 33 34 35 36 37 38 39 40 41
000
FTUS43 KDDC 291742
TAFHYS
TAF
KHYS 291742Z 2918/3018 36025G35KT P6SM OVC006
      TEMPO 2918/2922 5SM -RA BKN005
     FM292200 36020G30KT 3SM -RA OVC006
     FM301000 36020G30KT 3SM -RASN OVC003=

USA.gov is the U.S. government's official web portal to all federal, state and local government web resources and services.